Time;durP1;ratioP1;P1;durP2;ratioP2;P2;SDS_P1;SDS_P2;PMS_P1;PMS_P2;Temp;Humidity;BMP_temperature;BMP_pressure;BME280_temperature;BME280_humidity;BME280_pressure;Samples;Min_cycle;Max_cycle;Signal;HPM_P1;HPM_P2
2023/03/12 00:00:41;;;;;;;;;13.60;12.80;;;;;9.56;78.14;100412.75;4765264;29;45523;-61
2023/03/12 00:03:07;;;;;;;;;15.20;11.80;;;;;9.61;78.40;100423.09;4766405;29;45449;-61
2023/03/12 00:05:32;;;;;;;;;14.75;13.25;;;;;9.60;78.33;100424.13;4767225;29;45879;-61
2023/03/12 00:07:58;;;;;;;;;14.75;12.50;;;;;9.41;79.60;100403.94;4765236;29;45585;-61
2023/03/12 00:10:25;;;;;;;;;14.20;12.20;;;;;9.55;78.69;100426.69;4765694;29;45431;-61
2023/03/12 00:12:51;;;;;;;;;13.40;13.40;;;;;9.58;79.34;100426.25;4765719;29;45618;-63
2023/03/12 00:15:16;;;;;;;;;15.40;13.40;;;;;9.33;79.05;100388.56;4765422;29;45551;-61
2023/03/12 00:17:44;;;;;;;;;12.00;11.25;;;;;9.60;79.17;100430.47;4766189;29;46328;-61
2023/03/12 00:20:11;;;;;;;;;9.80;9.80;;;;;9.59;79.02;100420.56;4766564;29;45755;-60
2023/03/12 00:22:37;;;;;;;;;13.80;12.40;;;;;9.60;79.31;100408.53;4766820;29;45352;-60
2023/03/12 00:25:02;;;;;;;;;13.40;12.40;;;;;9.57;79.02;100398.03;4765746;29;45447;-61
2023/03/12 00:27:28;;;;;;;;;11.75;9.75;;;;;9.63;78.64;100397.19;4764645;29;47983;-62
2023/03/12 00:29:54;;;;;;;;;12.00;9.75;;;;;9.62;78.84;100386.41;4764958;29;46382;-62
2023/03/12 00:32:19;;;;;;;;;11.75;11.75;;;;;9.67;78.15;100397.59;4749953;29;45507;-62
2023/03/12 00:34:53;;;;;;;;;16.00;13.50;;;;;9.66;78.29;100389.56;4767132;29;45355;-60
2023/03/12 00:37:18;;;;;;;;;13.80;11.60;;;;;9.65;78.46;100402.41;4761278;29;46188;-62
2023/03/12 00:39:44;;;;;;;;;17.75;12.50;;;;;9.47;79.66;100362.00;4757781;29;45874;-61
2023/03/12 00:42:09;;;;;;;;;12.75;10.00;;;;;9.66;79.77;100408.75;4763349;29;45424;-61
2023/03/12 00:44:35;;;;;;;;;16.00;10.25;;;;;9.58;79.07;100410.66;4763684;29;45800;-60
2023/03/12 00:47:00;;;;;;;;;14.00;7.50;;;;;9.59;79.86;100412.34;4763169;29;45848;-61
2023/03/12 00:49:26;;;;;;;;;12.25;10.75;;;;;9.62;79.72;100427.53;4760825;29;45806;-60
2023/03/12 00:51:51;;;;;;;;;16.75;12.00;;;;;9.44;80.25;100403.53;4760932;29;45493;-61
2023/03/12 00:54:17;;;;;;;;;17.00;11.00;;;;;9.61;79.83;100445.84;4765130;29;45649;-62
2023/03/12 00:56:44;;;;;;;;;10.25;8.75;;;;;9.65;79.77;100445.44;4749305;29;47029;-62
2023/03/12 00:59:09;;;;;;;;;20.00;11.60;;;;;9.63;80.05;100438.28;4749623;29;45594;-61
2023/03/12 01:01:35;;;;;;;;;13.50;10.00;;;;;9.66;79.05;100438.91;4749908;29;45457;-62
2023/03/12 01:04:00;;;;;;;;;13.75;13.75;;;;;9.71;80.15;100444.59;4765084;29;45467;-62
2023/03/12 01:06:26;;;;;;;;;12.25;10.50;;;;;9.76;80.27;100455.72;4765500;29;45899;-62
2023/03/12 01:08:51;;;;;;;;;10.75;9.00;;;;;9.80;79.73;100454.25;4765747;29;45295;-61
2023/03/12 01:11:18;;;;;;;;;12.50;11.75;;;;;9.83;79.97;100466.69;4766200;29;45395;-62
2023/03/12 01:13:44;;;;;;;;;14.00;9.00;;;;;9.82;80.29;100463.09;4763924;29;45493;-61
2023/03/12 01:16:09;;;;;;;;;10.25;9.75;;;;;9.83;79.92;100456.56;4763729;29;46282;-61
2023/03/12 01:18:35;;;;;;;;;11.75;10.00;;;;;9.83;80.26;100456.56;4763765;29;45372;-61
2023/03/12 01:21:01;;;;;;;;;8.75;7.75;;;;;9.88;79.94;100464.16;4749324;29;45692;-62
2023/03/12 01:23:26;;;;;;;;;10.00;7.25;;;;;9.90;79.68;100457.41;4749405;29;45614;-61
2023/03/12 01:25:54;;;;;;;;;9.75;8.50;;;;;9.84;81.46;100452.78;4764834;29;45560;-62
2023/03/12 01:28:20;;;;;;;;;10.60;8.20;;;;;9.83;81.31;100459.28;4764017;29;45773;-62
2023/03/12 01:30:46;;;;;;;;;8.00;7.40;;;;;9.80;80.63;100456.13;4765851;29;45541;-61
2023/03/12 01:33:11;;;;;;;;;11.25;9.25;;;;;9.76;81.06;100450.25;4764848;29;45730;-61
2023/03/12 01:35:38;;;;;;;;;9.25;9.25;;;;;9.72;81.04;100449.00;4763983;29;47280;-60
2023/03/12 01:38:05;;;;;;;;;8.20;7.80;;;;;9.55;80.91;100427.50;4765163;29;45424;-61
2023/03/12 01:40:32;;;;;;;;;13.00;9.20;;;;;9.72;80.41;100446.25;4764989;29;45304;-61
2023/03/12 01:42:58;;;;;;;;;11.80;7.80;;;;;9.74;80.83;100446.88;4765379;29;45504;-61
2023/03/12 01:46:00;;;;;;;;;9.25;9.25;;;;;9.73;80.42;100451.50;4764284;29;46738;-62
2023/03/12 01:48:31;;;;;;;;;13.20;9.60;;;;;9.60;81.04;100429.59;4765141;29;45355;-61
2023/03/12 01:50:57;;;;;;;;;7.60;6.80;;;;;9.66;80.56;100433.41;4734314;29;45484;-62
2023/03/12 01:53:23;;;;;;;;;8.80;6.80;;;;;9.73;80.43;100446.03;4749441;29;45913;-61
2023/03/12 01:55:48;;;;;;;;;9.75;7.00;;;;;9.72;81.08;100447.09;4765427;29;45984;-61
2023/03/12 01:58:14;;;;;;;;;7.25;7.25;;;;;9.69;81.11;100452.16;4751920;29;45385;-61
2023/03/12 02:00:40;;;;;;;;;6.00;4.00;;;;;9.67;81.33;100449.66;4753978;29;45363;-61
2023/03/12 02:03:06;;;;;;;;;6.25;4.00;;;;;9.63;81.78;100438.28;4748823;29;45774;-62
2023/03/12 02:05:53;;;;;;;;;9.40;8.00;;;;;9.68;81.04;100448.59;4733983;29;46941;-61
2023/03/12 02:08:19;;;;;;;;;11.00;10.40;;;;;9.15;81.20;100359.94;4768097;29;45441;-61
2023/03/12 02:10:45;;;;;;;;;10.75;6.50;;;;;9.62;81.18;100428.34;4767157;29;45992;-61
2023/03/12 02:13:10;;;;;;;;;8.75;7.75;;;;;9.61;81.11;100426.66;4750859;29;45618;-61
2023/03/12 02:15:37;;;;;;;;;7.75;7.00;;;;;9.67;81.93;100429.63;4766800;29;46235;-60
2023/03/12 02:18:03;;;;;;;;;8.60;6.40;;;;;9.67;81.57;100425.00;4767692;29;45513;-62
2023/03/12 02:20:44;;;;;;;;;15.20;10.20;;;;;9.67;81.08;100426.88;4766881;29;45484;-62
2023/03/12 02:23:11;;;;;;;;;8.00;8.00;;;;;9.66;81.31;100427.94;4766373;29;45830;-61
2023/03/12 02:25:46;;;;;;;;;10.00;7.00;;;;;9.62;82.35;100427.53;4767398;29;45397;-62
2023/03/12 02:28:13;;;;;;;;;4.40;2.20;;;;;9.61;81.66;100437.63;4765960;29;45422;-61
2023/03/12 02:30:41;;;;;;;;;11.60;5.60;;;;;9.61;82.07;100436.81;4767867;29;45473;-62
2023/03/12 02:33:07;;;;;;;;;12.80;7.40;;;;;9.63;80.86;100442.91;4765646;29;45619;-62
2023/03/12 02:35:33;;;;;;;;;10.00;7.80;;;;;9.59;81.60;100428.78;4767169;29;46353;-62
2023/03/12 02:37:59;;;;;;;;;8.00;6.25;;;;;9.63;81.55;100441.03;4766408;29;45411;-61
2023/03/12 02:40:32;;;;;;;;;9.00;7.00;;;;;9.59;81.96;100434.25;4767157;29;45339;-61
2023/03/12 02:42:58;;;;;;;;;8.80;8.20;;;;;9.69;81.60;100449.41;4766452;29;45485;-61
2023/03/12 02:45:23;;;;;;;;;6.00;4.50;;;;;9.69;81.86;100457.63;4764406;29;46107;-61
2023/03/12 02:47:49;;;;;;;;;13.50;7.50;;;;;9.61;81.87;100448.59;4765529;29;45364;-61
2023/03/12 02:50:15;;;;;;;;;7.25;7.25;;;;;9.70;81.57;100451.94;4765427;29;45889;-60
2023/03/12 02:52:40;;;;;;;;;10.00;7.50;;;;;9.80;80.83;100469.84;4766394;29;45545;-61
2023/03/12 02:55:06;;;;;;;;;10.00;8.00;;;;;9.85;80.95;100470.91;4766693;29;46386;-62
2023/03/12 02:57:32;;;;;;;;;7.75;6.75;;;;;9.89;80.61;100477.63;4766933;29;45852;-61
2023/03/12 02:59:57;;;;;;;;;6.60;4.00;;;;;9.93;80.46;100477.22;4765959;29;45379;-62
2023/03/12 03:02:23;;;;;;;;;8.75;7.75;;;;;9.94;80.06;100468.78;4767381;29;45466;-61
2023/03/12 03:04:49;;;;;;;;;6.00;3.75;;;;;9.90;80.53;100465.63;4766866;29;46197;-62
2023/03/12 03:07:14;;;;;;;;;8.75;7.75;;;;;9.57;80.62;100414.47;4757171;29;45508;-61
2023/03/12 03:09:40;;;;;;;;;12.00;7.00;;;;;9.95;80.95;100477.84;4762819;29;45442;-62
2023/03/12 03:12:05;;;;;;;;;6.50;6.25;;;;;9.94;81.04;100468.78;4766538;29;45800;-61
2023/03/12 03:14:31;;;;;;;;;10.25;7.00;;;;;9.95;81.15;100470.47;4764126;29;47067;-61
2023/03/12 03:16:56;;;;;;;;;8.25;3.00;;;;;10.00;80.06;100478.03;4762852;29;45426;-62
2023/03/12 03:19:22;;;;;;;;;5.75;4.00;;;;;9.98;80.61;100470.03;4765776;29;45589;-62
2023/03/12 03:21:47;;;;;;;;;7.50;4.50;;;;;10.00;79.54;100475.28;4764572;29;45370;-61
2023/03/12 03:24:13;;;;;;;;;7.00;6.00;;;;;9.98;80.36;100477.41;4764061;29;45959;-61
2023/03/12 03:26:38;;;;;;;;;6.00;6.00;;;;;9.92;80.55;100467.31;4765822;29;45517;-62
2023/03/12 03:29:04;;;;;;;;;4.00;4.00;;;;;9.93;80.39;100478.03;4766075;29;45820;-61
2023/03/12 03:31:29;;;;;;;;;8.50;6.25;;;;;9.74;80.79;100463.31;4766818;29;45428;-61
2023/03/12 03:33:55;;;;;;;;;7.00;6.00;;;;;9.90;79.94;100490.31;4767120;29;45646;-62
2023/03/12 03:36:22;;;;;;;;;10.50;7.75;;;;;9.89;79.89;100494.06;4765654;29;45384;-61
2023/03/12 03:38:49;;;;;;;;;8.40;3.20;;;;;9.63;81.09;100456.59;4766548;29;45455;-61
2023/03/12 03:41:18;;;;;;;;;9.00;3.20;;;;;9.83;80.98;100499.59;4767618;29;45543;-62
2023/03/12 03:43:43;;;;;;;;;7.40;6.80;;;;;9.84;80.93;100510.34;4765213;29;47436;-62
2023/03/12 03:46:10;;;;;;;;;12.00;6.00;;;;;9.82;80.61;100496.00;4766742;29;45448;-60
2023/03/12 03:48:35;;;;;;;;;8.40;6.60;;;;;9.81;80.70;100497.03;4766582;29;45423;-60
2023/03/12 03:51:01;;;;;;;;;8.75;7.25;;;;;9.81;80.40;100490.75;4767323;29;45447;-60
2023/03/12 03:53:27;;;;;;;;;8.20;6.80;;;;;9.64;80.08;100469.25;4751005;29;45881;-61
2023/03/12 03:55:52;;;;;;;;;4.00;3.50;;;;;9.75;79.86;100487.78;4765412;29;45428;-62
2023/03/12 03:58:18;;;;;;;;;4.00;4.00;;;;;9.77;80.36;100504.03;4766791;29;45377;-61
2023/03/12 04:00:44;;;;;;;;;8.00;3.75;;;;;9.76;80.30;100508.66;4767066;29;45392;-61
2023/03/12 04:03:10;;;;;;;;;4.80;3.80;;;;;9.61;80.55;100483.38;4750456;29;46072;-61
2023/03/12 04:05:35;;;;;;;;;7.25;5.50;;;;;9.76;80.72;100513.28;4750443;29;45857;-61
2023/03/12 04:08:02;;;;;;;;;4.00;2.25;;;;;9.57;80.16;100485.72;4766726;29;45410;-60
2023/03/12 04:10:28;;;;;;;;;5.60;4.80;;;;;9.74;79.78;100529.09;4766845;29;46122;-61
2023/03/12 04:12:54;;;;;;;;;3.40;2.80;;;;;9.71;80.30;100535.84;4764846;29;47117;-62
2023/03/12 04:15:19;;;;;;;;;10.75;6.25;;;;;9.74;79.78;100545.56;4766759;29;45430;-62
2023/03/12 04:17:45;;;;;;;;;6.25;2.75;;;;;9.75;80.82;100539.00;4765618;29;45857;-61
2023/03/12 04:20:11;;;;;;;;;8.25;3.75;;;;;9.73;80.46;100533.72;4764845;29;45547;-61
2023/03/12 04:22:36;;;;;;;;;7.50;4.00;;;;;9.65;80.65;100535.88;4765221;29;46546;-61
2023/03/12 04:25:02;;;;;;;;;6.75;3.25;;;;;9.73;80.29;100560.31;4766323;29;45433;-61
2023/03/12 04:27:30;;;;;;;;;6.00;4.00;;;;;9.76;79.67;100559.88;4766651;29;45535;-62
2023/03/12 04:29:56;;;;;;;;;7.00;2.80;;;;;9.65;79.70;100535.88;4742945;29;45711;-61
2023/03/12 04:32:22;;;;;;;;;8.00;4.50;;;;;9.28;79.49;100476.84;4759146;29;45388;-62
2023/03/12 04:34:47;;;;;;;;;5.50;3.50;;;;;9.86;79.51;100568.53;4766107;29;45384;-62
2023/03/12 04:37:13;;;;;;;;;5.00;3.50;;;;;9.85;79.39;100574.22;4765682;29;45530;-61
2023/03/12 04:39:39;;;;;;;;;7.75;6.00;;;;;9.89;79.02;100581.81;4766722;29;45404;-62
2023/03/12 04:42:05;;;;;;;;;6.00;3.40;;;;;9.91;79.28;100589.81;4766137;29;45565;-61
2023/03/12 04:44:31;;;;;;;;;6.60;2.40;;;;;9.89;78.98;100592.78;4701242;29;45526;-62
2023/03/12 04:46:56;;;;;;;;;3.25;3.00;;;;;9.93;79.20;100600.59;4747812;29;45352;-61
2023/03/12 04:49:22;;;;;;;;;9.00;3.75;;;;;9.90;79.11;100597.22;4747292;29;45779;-61
2023/03/12 04:51:47;;;;;;;;;6.75;3.75;;;;;9.83;79.28;100587.31;4746960;29;45428;-61
2023/03/12 04:54:12;;;;;;;;;4.75;2.25;;;;;9.93;79.34;100597.84;4747916;29;45392;-61
2023/03/12 04:56:38;;;;;;;;;6.75;3.50;;;;;9.93;78.50;100603.31;4748518;29;45436;-62
2023/03/12 04:59:04;;;;;;;;;2.75;2.75;;;;;9.95;78.38;100602.06;4748366;29;45447;-63
2023/03/12 05:01:31;;;;;;;;;7.75;4.00;;;;;9.97;78.35;100599.13;4746820;29;46851;-59
2023/03/12 05:03:56;;;;;;;;;3.00;2.20;;;;;9.85;78.44;100588.78;4748240;29;45893;-62
2023/03/12 05:06:22;;;;;;;;;8.75;7.00;;;;;9.94;79.22;100602.28;4732210;29;45354;-62
2023/03/12 05:08:47;;;;;;;;;5.00;2.25;;;;;9.94;78.41;100605.00;4748242;29;45424;-60
2023/03/12 05:11:13;;;;;;;;;5.00;3.50;;;;;9.97;78.48;100605.44;4746687;29;45523;-62
2023/03/12 05:13:38;;;;;;;;;8.50;4.50;;;;;9.96;77.85;100603.75;4747740;29;45486;-62
2023/03/12 05:16:04;;;;;;;;;4.25;4.25;;;;;10.02;77.65;100632.22;4748097;29;45455;-62
2023/03/12 05:18:30;;;;;;;;;7.40;3.20;;;;;10.02;78.43;100627.59;4748475;29;45653;-61
2023/03/12 05:20:58;;;;;;;;;5.00;3.50;;;;;9.98;77.53;100626.31;4748323;29;45934;-61
2023/03/12 05:23:24;;;;;;;;;7.80;6.80;;;;;10.06;78.21;100635.38;4747870;29;45435;-62
2023/03/12 05:25:49;;;;;;;;;8.25;3.25;;;;;10.06;77.38;100624.41;4748550;29;45468;-61
2023/03/12 05:28:15;;;;;;;;;7.50;4.75;;;;;10.03;77.55;100631.16;4748052;29;45418;-61
2023/03/12 05:30:40;;;;;;;;;7.75;6.00;;;;;9.99;77.05;100624.41;4748441;29;46504;-62
2023/03/12 05:33:06;;;;;;;;;4.50;4.00;;;;;10.02;77.35;100629.47;4742769;29;45687;-61
2023/03/12 05:35:31;;;;;;;;;6.00;5.50;;;;;9.79;77.24;100597.84;4750780;29;45493;-62
2023/03/12 05:37:57;;;;;;;;;14.00;7.50;;;;;10.03;76.45;100632.00;4750133;29;45401;-62
2023/03/12 05:40:22;;;;;;;;;6.00;5.00;;;;;10.10;77.13;100640.25;4750797;29;45978;-61
2023/03/12 05:42:48;;;;;;;;;7.00;3.25;;;;;10.12;76.35;100646.34;4750725;29;45443;-62
2023/03/12 05:45:13;;;;;;;;;8.25;7.00;;;;;9.93;76.49;100608.81;4750829;29;45458;-61
2023/03/12 05:47:39;;;;;;;;;7.50;4.00;;;;;9.97;75.54;100610.09;4751212;29;45422;-61
2023/03/12 05:50:04;;;;;;;;;6.50;3.75;;;;;10.13;75.67;100638.94;4749285;29;47265;-62
2023/03/12 05:52:30;;;;;;;;;3.75;3.00;;;;;10.17;75.62;100643.81;4750968;29;45885;-61
2023/03/12 05:54:55;;;;;;;;;4.50;2.75;;;;;10.19;75.71;100643.59;4750456;29;45584;-62
2023/03/12 05:57:21;;;;;;;;;4.00;3.00;;;;;10.21;75.26;100646.13;4751385;29;45345;-62
2023/03/12 05:59:46;;;;;;;;;4.00;2.50;;;;;10.21;75.21;100646.13;4734222;29;46026;-63
2023/03/12 06:02:12;;;;;;;;;4.50;2.75;;;;;10.10;75.53;100631.16;4750620;29;45509;-62
2023/03/12 06:04:37;;;;;;;;;8.00;2.25;;;;;10.01;76.01;100616.81;4750816;29;45400;-62
2023/03/12 06:07:03;;;;;;;;;3.25;2.25;;;;;10.21;76.20;100663.44;4751080;29;45330;-61
2023/03/12 06:09:28;;;;;;;;;3.50;2.50;;;;;10.23;75.37;100663.22;4750263;29;45516;-62
2023/03/12 06:11:54;;;;;;;;;9.25;5.75;;;;;10.16;76.08;100657.75;4750601;29;45938;-63
2023/03/12 06:14:19;;;;;;;;;3.25;1.50;;;;;10.03;75.44;100651.19;4748762;29;45843;-61
2023/03/12 06:16:45;;;;;;;;;13.00;5.75;;;;;10.23;76.19;100676.94;4750278;29;45512;-62
2023/03/12 06:19:12;;;;;;;;;6.75;2.00;;;;;10.23;76.47;100675.03;4749341;29;45437;-61
2023/03/12 06:21:38;;;;;;;;;4.00;2.60;;;;;10.21;76.34;100681.78;4748699;29;45556;-61
2023/03/12 06:24:04;;;;;;;;;8.25;5.00;;;;;10.21;76.07;100687.28;4750653;29;45615;-62
2023/03/12 06:26:29;;;;;;;;;12.00;8.75;;;;;10.19;76.58;100681.16;4749254;29;45491;-61
2023/03/12 06:28:55;;;;;;;;;6.00;3.50;;;;;10.21;76.48;100676.31;4749904;29;45525;-62
2023/03/12 06:31:21;;;;;;;;;7.00;6.00;;;;;10.22;75.91;100670.63;4750230;29;45425;-61
2023/03/12 06:33:46;;;;;;;;;2.25;1.00;;;;;10.23;75.86;100663.22;4748621;29;45542;-61
2023/03/12 06:36:12;;;;;;;;;7.75;6.75;;;;;10.24;76.44;100670.41;4750382;29;45717;-61
2023/03/12 06:38:37;;;;;;;;;7.00;2.00;;;;;10.23;76.61;100663.22;4749914;29;46652;-62
2023/03/12 06:41:04;;;;;;;;;6.00;3.75;;;;;10.25;76.77;100659.22;4749791;29;46010;-61
2023/03/12 06:43:32;;;;;;;;;7.20;3.00;;;;;10.23;76.23;100661.31;4749815;29;45385;-60
2023/03/12 06:45:58;;;;;;;;;7.00;4.00;;;;;9.85;76.53;100602.50;4750012;29;45384;-63
2023/03/12 06:48:24;;;;;;;;;10.25;7.00;;;;;10.22;77.01;100670.63;4749901;29;45490;-61
2023/03/12 06:50:50;;;;;;;;;7.60;5.40;;;;;10.23;76.41;100679.66;4732725;29;45424;-62
2023/03/12 06:53:15;;;;;;;;;6.60;3.00;;;;;10.17;76.94;100686.84;4746900;29;45839;-61
2023/03/12 06:55:42;;;;;;;;;8.75;4.00;;;;;10.24;77.20;100697.84;4750145;29;45429;-61
2023/03/12 06:58:08;;;;;;;;;7.40;4.80;;;;;10.24;76.48;100692.34;4749462;29;45913;-61
2023/03/12 07:00:34;;;;;;;;;7.75;4.00;;;;;10.27;76.86;100694.66;4749680;29;45496;-61
2023/03/12 07:02:59;;;;;;;;;4.00;3.00;;;;;10.27;76.71;100694.66;4749733;29;45431;-61
2023/03/12 07:05:26;;;;;;;;;9.20;4.20;;;;;10.28;75.93;100699.94;4748597;29;45456;-61
2023/03/12 07:07:51;;;;;;;;;5.50;2.50;;;;;10.28;76.23;100710.91;4748311;29;46294;-62
2023/03/12 07:10:17;;;;;;;;;12.00;5.25;;;;;10.29;76.46;100712.59;4749546;29;45508;-61
2023/03/12 07:12:42;;;;;;;;;10.25;5.25;;;;;10.31;76.33;100706.91;4748300;29;45562;-62
2023/03/12 07:15:08;;;;;;;;;8.50;6.50;;;;;10.11;76.77;100677.59;4749270;29;45643;-61
2023/03/12 07:17:34;;;;;;;;;8.75;4.50;;;;;10.17;76.32;100686.84;4749567;29;46439;-62
2023/03/12 07:19:59;;;;;;;;;8.50;3.50;;;;;10.23;76.80;100701.63;4749458;29;46150;-61
2023/03/12 07:22:25;;;;;;;;;7.50;4.00;;;;;10.23;76.48;100707.97;4749705;29;45506;-61
2023/03/12 07:24:50;;;;;;;;;8.00;2.50;;;;;10.13;76.24;100705.63;4733472;29;45491;-61
2023/03/12 07:27:16;;;;;;;;;7.25;2.50;;;;;10.21;76.95;100706.47;4748927;29;45593;-61
2023/03/12 07:29:42;;;;;;;;;4.40;3.20;;;;;10.19;76.02;100705.84;4748277;29;45529;-61
2023/03/12 07:32:08;;;;;;;;;6.40;4.00;;;;;10.19;76.56;100714.09;4747879;29;45457;-61
2023/03/12 07:34:33;;;;;;;;;5.00;2.75;;;;;10.22;75.92;100730.09;4749617;29;45589;-61
2023/03/12 07:36:59;;;;;;;;;6.00;2.25;;;;;10.22;76.40;100730.97;4749329;29;45327;-61
2023/03/12 07:39:24;;;;;;;;;8.00;4.75;;;;;10.25;75.62;100746.97;4748782;29;45524;-61
2023/03/12 07:41:50;;;;;;;;;4.00;3.00;;;;;10.25;75.78;100748.91;4749688;29;45451;-61
2023/03/12 07:44:15;;;;;;;;;7.25;3.75;;;;;10.30;75.24;100751.88;4748018;29;45589;-62
2023/03/12 07:46:41;;;;;;;;;9.50;4.75;;;;;10.36;75.91;100753.75;4749235;29;45861;-61
2023/03/12 07:49:07;;;;;;;;;9.00;6.50;;;;;10.31;75.66;100750.81;4748969;29;45519;-61
2023/03/12 07:51:32;;;;;;;;;3.75;3.75;;;;;10.39;75.43;100756.06;4747670;29;45594;-62
2023/03/12 07:53:58;;;;;;;;;5.50;5.00;;;;;10.47;75.60;100762.44;4747396;29;45461;-61
2023/03/12 07:56:23;;;;;;;;;9.00;6.25;;;;;10.36;75.13;100731.78;4748656;29;46218;-61
2023/03/12 07:58:49;;;;;;;;;3.50;3.50;;;;;10.57;74.95;100755.47;4748836;29;45857;-62
2023/03/12 08:01:14;;;;;;;;;9.50;3.25;;;;;10.63;74.65;100755.69;4748998;29;45427;-61
2023/03/12 08:03:40;;;;;;;;;3.50;3.50;;;;;10.67;74.37;100741.31;4749158;29;45574;-61
2023/03/12 08:06:06;;;;;;;;;7.50;3.00;;;;;10.69;73.96;100746.59;4749077;29;46292;-61
2023/03/12 08:08:31;;;;;;;;;9.75;6.25;;;;;10.55;73.76;100712.81;4748440;29;45518;-61
2023/03/12 08:10:58;;;;;;;;;9.25;6.75;;;;;10.80;73.75;100750.59;4749459;29;45474;-61
2023/03/12 08:13:26;;;;;;;;;5.80;4.20;;;;;10.52;73.18;100699.53;4740980;29;45700;-62
2023/03/12 08:15:52;;;;;;;;;5.80;4.00;;;;;10.84;73.69;100738.16;4684773;29;47595;-61
2023/03/12 08:18:20;;;;;;;;;15.00;9.25;;;;;10.73;72.78;100714.91;4735405;29;45532;-61
2023/03/12 08:20:49;;;;;;;;;5.60;4.80;;;;;10.91;72.68;100736.22;4729754;30;45391;-61
2023/03/12 08:23:15;;;;;;;;;7.00;4.20;;;;;10.88;72.78;100727.56;4731314;29;45485;-59
2023/03/12 08:25:40;;;;;;;;;9.50;5.00;;;;;10.94;73.06;100741.28;4729494;30;46943;-60
2023/03/12 08:28:05;;;;;;;;;8.50;4.00;;;;;10.98;72.61;100744.44;4729382;30;45340;-61
2023/03/12 08:30:34;;;;;;;;;6.50;4.50;;;;;10.85;72.40;100723.34;4740965;29;45402;-61
2023/03/12 08:32:59;;;;;;;;;4.80;3.20;;;;;11.03;72.93;100754.78;4731567;29;45606;-61
2023/03/12 08:35:25;;;;;;;;;4.25;2.00;;;;;10.97;72.25;100735.38;4746979;29;46199;-62
2023/03/12 08:37:50;;;;;;;;;4.25;4.00;;;;;10.58;72.03;100676.75;4745731;29;45591;-62
2023/03/12 08:40:17;;;;;;;;;3.75;2.75;;;;;11.08;72.12;100757.72;4748193;29;45462;-61
2023/03/12 08:42:43;;;;;;;;;3.20;2.20;;;;;10.91;72.20;100725.25;4748614;29;45511;-61
2023/03/12 08:45:10;;;;;;;;;9.60;4.40;;;;;11.18;72.09;100765.50;4748461;29;46645;-61
2023/03/12 08:47:36;;;;;;;;;9.00;4.00;;;;;11.16;71.36;100773.97;4732261;29;45624;-64
2023/03/12 08:50:01;;;;;;;;;8.60;5.40;;;;;11.23;71.17;100783.06;4740689;29;45496;-61
2023/03/12 08:52:27;;;;;;;;;7.00;7.00;;;;;11.29;71.00;100784.09;4730508;29;45545;-61
2023/03/12 08:54:52;;;;;;;;;7.25;4.75;;;;;11.45;70.55;100801.16;4745435;29;45612;-59
2023/03/12 08:57:18;;;;;;;;;4.50;3.25;;;;;11.25;69.58;100747.97;4747115;29;45380;-60
2023/03/12 08:59:43;;;;;;;;;4.75;4.00;;;;;11.66;69.52;100800.03;4747142;29;45501;-60
2023/03/12 09:02:12;;;;;;;;;4.00;3.25;;;;;11.74;69.08;100801.69;4745589;29;45538;-60
2023/03/12 09:04:37;;;;;;;;;7.40;4.60;;;;;11.76;68.86;100786.69;4745402;29;47724;-60
2023/03/12 09:07:03;;;;;;;;;8.00;3.00;;;;;11.66;68.26;100767.03;4748842;29;45403;-61
2023/03/12 09:09:29;;;;;;;;;7.25;4.00;;;;;12.00;68.18;100802.63;4757283;29;45947;-61
2023/03/12 09:11:54;;;;;;;;;2.00;1.50;;;;;12.03;66.59;100802.19;4750362;29;45408;-60
2023/03/12 09:14:20;;;;;;;;;10.50;4.75;;;;;11.85;65.94;100748.75;4748415;29;47039;-62
2023/03/12 09:16:45;;;;;;;;;3.25;2.75;;;;;11.88;66.56;100766.72;4714031;29;46171;-62
2023/03/12 09:19:11;;;;;;;;;2.50;2.50;;;;;11.59;66.38;100708.50;4748721;29;45411;-61
2023/03/12 09:21:38;;;;;;;;;9.25;4.00;;;;;12.12;65.34;100795.38;4749195;29;45490;-61
2023/03/12 09:24:05;;;;;;;;;3.60;2.40;;;;;12.17;64.35;100803.00;4749984;29;46526;-62
2023/03/12 09:26:33;;;;;;;;;5.40;4.60;;;;;12.16;64.61;100802.13;4749656;29;45687;-61
2023/03/12 09:28:58;;;;;;;;;5.20;4.00;;;;;11.93;62.88;100767.75;4748186;29;45352;-61
2023/03/12 09:31:24;;;;;;;;;9.50;8.50;;;;;12.18;63.24;100802.75;4744903;29;45351;-63
2023/03/12 09:33:50;;;;;;;;;3.25;3.25;;;;;12.07;62.05;100793.28;4747398;29;46059;-61
2023/03/12 09:36:16;;;;;;;;;3.40;2.40;;;;;12.16;62.94;100804.88;4734085;29;45430;-61
2023/03/12 09:38:41;;;;;;;;;4.00;3.00;;;;;12.26;62.82;100798.03;4746445;29;45401;-61
2023/03/12 09:41:15;;;;;;;;;5.25;2.00;;;;;12.30;63.58;100802.91;4748219;29;45376;-62
2023/03/12 09:43:44;;;;;;;;;4.40;2.80;;;;;12.36;63.73;100814.91;4733744;29;46706;-62
2023/03/12 09:46:40;;;;;;;;;3.80;2.00;;;;;12.42;63.38;100808.53;4748469;29;45461;-60
2023/03/12 09:49:30;;;;;;;;;6.00;3.60;;;;;12.49;62.69;100811.22;4742466;29;45599;-62
2023/03/12 09:51:56;;;;;;;;;5.00;4.00;;;;;12.12;62.80;100758.78;4730794;29;45930;-59
2023/03/12 09:54:35;;;;;;;;;2.00;0.25;;;;;12.34;61.86;100815.13;4750278;29;45411;-61
2023/03/12 09:57:03;;;;;;;;;3.00;1.40;;;;;12.16;61.69;100771.88;4748318;29;45493;-61
2023/03/12 09:59:28;;;;;;;;;8.80;2.60;;;;;12.43;62.26;100817.63;4748591;29;45750;-61
2023/03/12 10:01:56;;;;;;;;;7.50;4.50;;;;;12.56;61.75;100814.78;4749148;29;45287;-62
2023/03/12 10:04:42;;;;;;;;;8.20;3.40;;;;;12.52;61.09;100794.25;4749639;29;46475;-61
2023/03/12 10:07:14;;;;;;;;;8.60;5.00;;;;;12.59;59.97;100786.78;4748282;29;45572;-61
2023/03/12 10:10:04;;;;;;;;;5.20;4.00;;;;;12.69;58.75;100810.22;4749781;29;45456;-61
2023/03/12 10:12:48;;;;;;;;;4.80;3.60;;;;;12.74;57.78;100802.97;4749979;29;45676;-61
2023/03/12 10:15:25;;;;;;;;;3.80;2.00;;;;;12.78;58.58;100794.25;4747562;29;45510;-62
2023/03/12 10:18:14;;;;;;;;;5.20;1.40;;;;;12.86;59.00;100783.81;4739496;29;45475;-62
2023/03/12 10:20:49;;;;;;;;;5.60;3.20;;;;;13.03;57.85;100799.78;4749713;29;45818;-62
2023/03/12 10:23:28;;;;;;;;;5.60;3.00;;;;;13.10;58.49;100807.94;4748273;29;45407;-63
2023/03/12 10:26:13;;;;;;;;;8.80;4.20;;;;;12.98;59.33;100805.09;4748260;29;46586;-65
2023/03/12 10:28:52;;;;;;;;;6.40;4.60;;;;;12.99;58.97;100804.03;4752381;29;45443;-62
2023/03/12 10:31:33;;;;;;;;;3.80;1.40;;;;;13.19;59.08;100811.25;4734204;29;45785;-62
2023/03/12 10:34:00;;;;;;;;;2.80;2.00;;;;;13.24;57.74;100814.19;4718528;29;45793;-62
2023/03/12 10:36:28;;;;;;;;;3.80;3.80;;;;;13.15;57.71;100791.59;4744689;29;48425;-61
2023/03/12 10:38:54;;;;;;;;;3.80;2.00;;;;;13.05;57.65;100761.81;4749840;29;45418;-61
2023/03/12 10:41:25;;;;;;;;;2.75;2.25;;;;;13.20;57.26;100811.03;4747078;29;45494;-59
2023/03/12 10:43:51;;;;;;;;;5.60;2.80;;;;;13.23;57.50;100804.22;4730633;29;45568;-60
2023/03/12 10:46:45;;;;;;;;;8.50;3.50;;;;;13.22;57.14;100817.16;4732565;29;46977;-63
2023/03/12 10:49:20;;;;;;;;;6.00;3.00;;;;;13.25;57.42;100810.34;4747972;29;46147;-62
2023/03/12 10:52:27;;;;;;;;;3.80;3.80;;;;;13.17;57.87;100805.97;4749451;29;45479;-63
2023/03/12 10:54:53;;;;;;;;;4.80;2.40;;;;;13.14;58.20;100796.25;4718747;29;46014;-61
2023/03/12 10:57:19;;;;;;;;;5.00;4.75;;;;;13.20;57.94;100799.16;4732950;29;45500;-63
2023/03/12 10:59:46;;;;;;;;;8.80;4.80;;;;;13.19;57.27;100808.50;4744754;29;45580;-63
2023/03/12 11:02:28;;;;;;;;;3.60;2.60;;;;;13.18;57.72;100807.66;4746890;29;45378;-62
2023/03/12 11:04:53;;;;;;;;;8.00;5.00;;;;;13.10;57.97;100791.41;4747854;29;45871;-63
2023/03/12 11:07:34;;;;;;;;;6.50;3.75;;;;;13.08;57.16;100788.88;4747558;29;46546;-62
2023/03/12 11:10:13;;;;;;;;;6.00;2.60;;;;;12.79;57.34;100729.84;4747298;29;45511;-62
2023/03/12 11:12:39;;;;;;;;;5.60;2.80;;;;;13.35;57.73;100801.56;4733131;29;45724;-62
2023/03/12 11:15:40;;;;;;;;;3.50;2.00;;;;;13.31;57.13;100798.41;4733213;29;45403;-61
2023/03/12 11:18:31;;;;;;;;;10.80;7.20;;;;;13.25;57.73;100800.16;4731625;29;45848;-61
2023/03/12 11:21:11;;;;;;;;;5.40;4.00;;;;;13.36;56.73;100793.06;4746747;29;45548;-62
2023/03/12 11:23:42;;;;;;;;;5.20;3.80;;;;;13.41;57.11;100793.19;4734511;29;45652;-62
2023/03/12 11:26:13;;;;;;;;;4.60;4.60;;;;;13.34;56.66;100786.09;4749249;29;45461;-62
2023/03/12 11:28:44;;;;;;;;;6.00;1.80;;;;;13.45;56.93;100801.84;4730929;29;47842;-62